Time;durP1;ratioP1;P1;durP2;ratioP2;P2;SDS_P1;SDS_P2;PMS_P1;PMS_P2;Temp;Humidity;BMP_temperature;BMP_pressure;BME280_temperature;BME280_humidity;BME280_pressure;Samples;Min_cycle;Max_cycle;Signal;HPM_P1;HPM_P2
2021/01/31 00:00:40;;;;;;;3.60;2.58;;;2.10;1.00;;;;;;5054925;28;20168;-76
2021/01/31 00:03:33;;;;;;;6.47;3.00;;;2.10;1.00;;;;;;5055992;28;20171;-75
2021/01/31 00:06:01;;;;;;;5.82;2.70;;;2.10;1.00;;;;;;5054949;28;20242;-75
2021/01/31 00:08:33;;;;;;;4.72;2.45;;;1.90;1.00;;;;;;5054904;28;20164;-75
2021/01/31 00:11:21;;;;;;;2.88;2.15;;;2.00;1.00;;;;;;5055250;28;20164;-75
2021/01/31 00:13:57;;;;;;;5.22;3.15;;;2.00;1.00;;;;;;5054225;28;20200;-75
2021/01/31 00:16:28;;;;;;;8.18;3.50;;;2.00;1.00;;;;;;5054681;28;20603;-75
2021/01/31 00:22:45;;;;;;;3.42;2.88;;;2.00;1.00;;;;;;5054475;28;20230;-75
2021/01/31 00:25:17;;;;;;;5.07;3.03;;;2.10;1.00;;;;;;5054644;28;20250;-75
2021/01/31 00:27:42;;;;;;;5.05;3.55;;;2.00;1.00;;;;;;5054614;28;20167;-74
2021/01/31 00:30:29;;;;;;;4.33;3.57;;;2.00;1.00;;;;;;5054632;28;20519;-75
2021/01/31 00:33:39;;;;;;;6.78;2.78;;;1.90;1.00;;;;;;5053446;28;20803;-74
2021/01/31 00:36:04;;;;;;;10.35;3.85;;;1.90;1.00;;;;;;5054698;28;20160;-74
2021/01/31 00:38:31;;;;;;;6.77;3.27;;;;;;;;;;5054402;28;20657;-75
2021/01/31 00:41:09;;;;;;;3.70;2.53;;;1.90;1.00;;;;;;5054076;28;20234;-75
2021/01/31 00:43:39;;;;;;;9.50;3.67;;;1.90;1.00;;;;;;5074148;28;20194;-75
2021/01/31 00:46:27;;;;;;;4.70;2.22;;;1.90;1.00;;;;;;5074256;28;20595;-74
2021/01/31 00:52:22;;;;;;;4.20;2.72;;;2.00;1.00;;;;;;5063863;28;20221;-76
2021/01/31 00:54:51;;;;;;;3.28;2.50;;;2.00;1.00;;;;;;5053966;28;20183;-76
2021/01/31 00:58:09;;;;;;;5.68;3.70;;;2.00;1.00;;;;;;5054024;28;20164;-76
2021/01/31 01:01:03;;;;;;;4.70;2.55;;;2.10;1.00;;;;;;5054141;28;20167;-76
2021/01/31 01:03:33;;;;;;;7.05;4.00;;;2.10;1.00;;;;;;5054399;28;20243;-74
2021/01/31 01:05:59;;;;;;;6.35;3.10;;;2.00;1.00;;;;;;5054340;28;20515;-75
2021/01/31 01:08:45;;;;;;;5.50;3.10;;;2.10;1.00;;;;;;5053579;28;20172;-75
2021/01/31 01:11:11;;;;;;;5.90;3.00;;;2.10;1.00;;;;;;5054062;28;20164;-75
2021/01/31 01:13:57;;;;;;;5.00;2.90;;;2.10;1.00;;;;;;5054191;28;20221;-75
2021/01/31 01:16:45;;;;;;;5.65;2.90;;;2.20;1.00;;;;;;5053788;28;20163;-75
2021/01/31 01:22:51;;;;;;;8.40;3.55;;;2.10;1.00;;;;;;5054004;28;20750;-77
2021/01/31 01:25:33;;;;;;;7.38;2.97;;;2.20;1.00;;;;;;5053761;28;20191;-76
2021/01/31 01:31:21;;;;;;;7.95;3.47;;;2.10;1.00;;;;;;5053628;28;20158;-76
2021/01/31 01:33:51;;;;;;;3.60;2.77;;;2.10;1.00;;;;;;5053767;28;20191;-76
2021/01/31 01:36:21;;;;;;;4.78;3.20;;;2.20;1.00;;;;;;5053626;28;20160;-76
2021/01/31 01:39:21;;;;;;;8.77;3.63;;;2.20;1.00;;;;;;5053374;28;20179;-76
2021/01/31 01:41:51;;;;;;;4.93;3.13;;;2.10;1.00;;;;;;5053450;28;20168;-76
2021/01/31 01:44:21;;;;;;;13.35;3.88;;;2.20;1.00;;;;;;5053214;28;20646;-76
2021/01/31 01:46:54;;;;;;;8.65;4.10;;;2.20;1.00;;;;;;5053650;28;20221;-76
2021/01/31 01:49:35;;;;;;;6.50;3.50;;;2.20;1.00;;;;;;5054171;28;20305;-75
2021/01/31 01:55:32;;;;;;;9.55;3.30;;;2.20;1.00;;;;;;5073565;28;20221;-75
2021/01/31 01:58:12;;;;;;;7.80;3.85;;;2.20;1.00;;;;;;5073503;28;20162;-75
2021/01/31 02:00:47;;;;;;;11.98;5.00;;;2.20;1.00;;;;;;5073817;28;20167;-76
2021/01/31 02:03:34;;;;;;;3.88;2.85;;;2.10;1.00;;;;;;5056088;28;20193;-76
2021/01/31 02:09:51;;;;;;;8.98;3.75;;;2.10;1.00;;;;;;5053490;28;20183;-76
2021/01/31 02:12:55;;;;;;;9.73;4.30;;;2.10;1.00;;;;;;5052234;28;20168;-76
2021/01/31 02:19:29;;;;;;;5.45;3.00;;;2.00;1.00;;;;;;5066383;28;20550;-75
2021/01/31 02:22:39;;;;;;;7.72;4.07;;;1.90;1.00;;;;;;4993515;28;20613;-74
2021/01/31 02:25:44;;;;;;;8.60;3.10;;;2.00;1.00;;;;;;5011363;28;20209;-75
2021/01/31 02:28:51;;;;;;;8.43;4.13;;;1.90;1.00;;;;;;5011353;28;20166;-75
2021/01/31 02:31:57;;;;;;;7.40;4.15;;;1.90;1.00;;;;;;5010570;28;20636;-75
2021/01/31 02:34:54;;;;;;;6.80;3.47;;;2.00;1.00;;;;;;5011810;28;20193;-76
2021/01/31 02:38:10;;;;;;;4.97;3.45;;;2.00;1.00;;;;;;5000625;28;20236;-76
2021/01/31 02:40:58;;;;;;;5.93;3.42;;;2.00;1.00;;;;;;4991346;28;22153;-76
2021/01/31 02:43:48;;;;;;;11.65;4.55;;;2.00;1.00;;;;;;5010511;28;20220;-75
2021/01/31 02:46:56;;;;;;;5.53;3.65;;;2.00;1.00;;;;;;5014965;28;20192;-76
2021/01/31 02:53:17;;;;;;;10.57;3.67;;;2.00;1.00;;;;;;4999638;28;20273;-76
2021/01/31 02:56:21;;;;;;;7.50;3.45;;;2.10;1.00;;;;;;4994927;28;20224;-76
2021/01/31 02:58:55;;;;;;;2.63;2.40;;;2.00;1.00;;;;;;5031189;28;20184;-76
2021/01/31 03:05:04;;;;;;;7.00;3.25;;;2.00;1.00;;;;;;5056578;28;20233;-75
2021/01/31 03:08:09;;;;;;;9.88;3.67;;;1.90;1.00;;;;;;5055862;28;20274;-75
2021/01/31 03:10:59;;;;;;;4.70;2.85;;;2.00;1.00;;;;;;5056402;28;20234;-75
2021/01/31 03:14:11;;;;;;;12.95;4.57;;;2.10;1.00;;;;;;5056316;28;20230;-75
2021/01/31 03:16:57;;;;;;;10.98;4.15;;;2.00;1.00;;;;;;4994792;28;20190;-75
2021/01/31 03:23:21;;;;;;;7.10;3.47;;;1.80;1.00;;;;;;5013731;28;20612;-76
2021/01/31 03:29:08;;;;;;;9.98;3.47;;;1.80;1.00;;;;;;5013689;28;20181;-76
2021/01/31 03:31:56;;;;;;;5.17;3.27;;;1.80;1.00;;;;;;5014123;28;20178;-76
2021/01/31 03:34:54;;;;;;;8.23;3.25;;;1.80;1.00;;;;;;5014170;28;20613;-75
2021/01/31 03:37:54;;;;;;;6.75;4.15;;;1.80;1.00;;;;;;5013182;28;20197;-76
2021/01/31 03:43:41;;;;;;;4.57;3.05;;;1.80;1.00;;;;;;5014339;28;20215;-76
2021/01/31 03:46:30;;;;;;;8.77;3.40;;;1.80;1.00;;;;;;5013405;28;20656;-76
2021/01/31 03:49:15;;;;;;;20.88;4.28;;;1.80;1.00;;;;;;5013834;28;20565;-75
2021/01/31 03:51:42;;;;;;;8.13;3.75;;;1.80;1.00;;;;;;5013091;28;20184;-76
2021/01/31 03:54:10;;;;;;;7.88;3.30;;;1.80;1.00;;;;;;5060533;28;20202;-76
2021/01/31 04:00:04;;;;;;;10.02;3.20;;;1.80;1.00;;;;;;5055363;28;20163;-76
2021/01/31 04:02:38;;;;;;;8.38;3.75;;;1.80;1.00;;;;;;5055043;28;20402;-76
2021/01/31 04:05:05;;;;;;;9.00;3.83;;;1.80;1.00;;;;;;5055335;28;20170;-76
2021/01/31 04:07:37;;;;;;;10.25;3.75;;;1.80;1.00;;;;;;5074081;28;20171;-76
2021/01/31 04:10:21;;;;;;;11.68;3.92;;;1.70;1.00;;;;;;5074552;28;20182;-76
2021/01/31 04:13:21;;;;;;;4.57;3.05;;;1.70;1.00;;;;;;5074906;28;20155;-76
2021/01/31 04:15:53;;;;;;;7.82;3.55;;;1.70;1.00;;;;;;5068980;28;20195;-76
2021/01/31 04:18:51;;;;;;;10.77;4.30;;;1.60;1.00;;;;;;5054668;28;20246;-76
2021/01/31 04:21:17;;;;;;;4.05;2.65;;;1.40;1.00;;;;;;5053870;28;20218;-75
2021/01/31 04:23:51;;;;;;;10.87;2.60;;;1.50;1.00;;;;;;5055006;28;20196;-75
2021/01/31 04:26:21;;;;;;;6.38;3.30;;;1.50;1.00;;;;;;5054723;28;20666;-75
2021/01/31 04:29:04;;;;;;;4.53;3.08;;;1.50;1.00;;;;;;5054910;28;20159;-75
2021/01/31 04:32:21;;;;;;;4.78;2.97;;;1.50;1.00;;;;;;5071882;28;20614;-75
2021/01/31 04:34:51;;;;;;;5.32;3.28;;;1.40;1.00;;;;;;5072407;28;20194;-76
2021/01/31 04:37:51;;;;;;;8.13;2.88;;;1.30;1.00;;;;;;5054259;28;20183;-76
2021/01/31 04:40:22;;;;;;;5.28;2.92;;;1.20;1.00;;;;;;5054974;28;20595;-76
2021/01/31 04:42:52;;;;;;;5.65;2.72;;;1.20;1.00;;;;;;5054337;28;20164;-76
2021/01/31 04:45:23;;;;;;;6.03;2.97;;;1.10;1.00;;;;;;5054387;28;20205;-76
2021/01/31 04:48:02;;;;;;;4.75;2.22;;;1.10;1.00;;;;;;5053738;28;20221;-76
2021/01/31 04:50:29;;;;;;;10.52;2.72;;;1.20;1.00;;;;;;5053889;28;20172;-74
2021/01/31 04:53:33;;;;;;;5.35;2.92;;;1.20;1.00;;;;;;5066496;28;20206;-74
2021/01/31 04:56:31;;;;;;;4.07;2.63;;;1.30;1.00;;;;;;5074211;28;20167;-74
2021/01/31 04:59:21;;;;;;;2.75;1.95;;;1.20;1.00;;;;;;5074311;28;20164;-74
2021/01/31 05:02:28;;;;;;;6.45;3.08;;;1.20;1.00;;;;;;5069942;28;20164;-74
2021/01/31 05:05:12;;;;;;;4.65;2.63;;;1.20;1.00;;;;;;5054200;28;20195;-75
2021/01/31 05:07:52;;;;;;;3.17;2.83;;;1.20;1.00;;;;;;5054108;28;20175;-75
2021/01/31 05:10:22;;;;;;;6.93;2.88;;;1.20;1.00;;;;;;5069378;28;20528;-74
2021/01/31 05:13:30;;;;;;;7.30;2.35;;;1.20;1.00;;;;;;5054115;28;20258;-74
2021/01/31 05:16:12;;;;;;;4.13;3.03;;;1.20;1.00;;;;;;4992475;28;20218;-75
2021/01/31 05:18:54;;;;;;;5.43;2.22;;;1.30;1.00;;;;;;4992473;28;20201;-74
2021/01/31 05:21:25;;;;;;;6.10;3.15;;;1.40;1.00;;;;;;4995410;28;20329;-75
2021/01/31 05:24:19;;;;;;;1.95;1.83;;;1.30;1.00;;;;;;5012373;28;20264;-75
2021/01/31 05:26:52;;;;;;;4.13;2.40;;;1.30;1.00;;;;;;5012130;28;20180;-74
2021/01/31 05:29:41;;;;;;;6.03;3.03;;;1.20;1.00;;;;;;5011443;28;20268;-73
2021/01/31 05:32:12;;;;;;;5.55;3.30;;;1.20;1.00;;;;;;5001796;28;20224;-73
2021/01/31 05:34:41;;;;;;;7.22;3.25;;;1.20;1.00;;;;;;5011290;28;20280;-73
2021/01/31 05:37:17;;;;;;;5.40;2.50;;;1.30;1.00;;;;;;5011966;28;20184;-73
2021/01/31 05:39:57;;;;;;;4.28;2.90;;;1.20;1.00;;;;;;5011373;28;20235;-73
2021/01/31 05:42:29;;;;;;;6.13;2.90;;;1.10;1.00;;;;;;5011827;28;20172;-74
2021/01/31 05:45:04;;;;;;;6.68;3.25;;;1.20;1.00;;;;;;5011489;28;20608;-74
2021/01/31 05:47:51;;;;;;;6.80;3.35;;;1.20;1.00;;;;;;5011194;28;20598;-75
2021/01/31 05:50:52;;;;;;;6.18;3.35;;;1.20;1.00;;;;;;5012308;28;20165;-76
2021/01/31 05:53:24;;;;;;;7.18;3.03;;;1.20;1.00;;;;;;5051705;28;20228;-76
2021/01/31 05:55:52;;;;;;;2.05;1.30;;;1.20;1.00;;;;;;5072044;28;20815;-76
2021/01/31 05:58:24;;;;;;;8.65;3.40;;;1.20;1.00;;;;;;5057132;28;20168;-76
2021/01/31 06:01:15;;;;;;;5.22;2.35;;;1.20;1.00;;;;;;5053339;28;20160;-76
2021/01/31 06:03:41;;;;;;;6.80;3.30;;;1.10;1.00;;;;;;5053242;28;20637;-76
2021/01/31 06:06:21;;;;;;;2.55;2.28;;;1.00;1.00;;;;;;5053580;28;20198;-76
2021/01/31 06:08:54;;;;;;;6.38;2.90;;;1.10;1.00;;;;;;5053089;28;20164;-76
2021/01/31 06:11:31;;;;;;;6.60;3.10;;;1.20;1.00;;;;;;5053130;28;20630;-76
2021/01/31 06:14:21;;;;;;;4.20;2.55;;;1.20;1.00;;;;;;5052902;28;20191;-76
2021/01/31 06:17:13;;;;;;;2.45;2.28;;;1.20;1.00;;;;;;5053837;28;20163;-76
2021/01/31 06:23:39;;;;;;;8.43;3.40;;;1.20;1.00;;;;;;5056950;28;20183;-74
2021/01/31 06:26:31;;;;;;;7.18;3.08;;;1.10;1.00;;;;;;5057274;28;20668;-74
2021/01/31 06:29:39;;;;;;;10.32;3.42;;;1.20;1.00;;;;;;5049954;28;20231;-74
2021/01/31 06:32:26;;;;;;;2.20;1.80;;;1.00;1.00;;;;;;5057256;28;20599;-74
2021/01/31 06:35:08;;;;;;;9.32;3.70;;;1.00;1.00;;;;;;5056642;28;20191;-74
2021/01/31 06:38:03;;;;;;;3.08;1.77;;;1.00;1.00;;;;;;5070516;28;20244;-74
2021/01/31 06:41:21;;;;;;;6.35;2.95;;;1.00;1.00;;;;;;5077191;28;20183;-75
2021/01/31 06:44:22;;;;;;;3.53;2.50;;;1.00;1.00;;;;;;5076551;28;20199;-74
2021/01/31 06:47:39;;;;;;;4.90;3.08;;;1.00;1.00;;;;;;5007329;28;20272;-74
2021/01/31 06:50:27;;;;;;;6.00;2.78;;;0.90;1.00;;;;;;4995396;28;20649;-74
2021/01/31 06:53:39;;;;;;;4.10;2.20;;;1.00;1.00;;;;;;4995150;28;20197;-76
2021/01/31 06:56:42;;;;;;;5.78;2.72;;;1.10;1.00;;;;;;4995875;28;20213;-76
2021/01/31 06:59:25;;;;;;;5.25;2.63;;;1.10;1.00;;;;;;5013168;28;20591;-76
2021/01/31 07:02:12;;;;;;;2.78;2.00;;;1.00;1.00;;;;;;5011178;28;20185;-76
2021/01/31 07:08:36;;;;;;;7.63;2.80;;;1.10;1.00;;;;;;4995293;28;20711;-76
2021/01/31 07:11:51;;;;;;;4.53;2.05;;;1.10;1.00;;;;;;5011739;28;20250;-76
2021/01/31 07:14:53;;;;;;;3.78;2.25;;;1.20;1.00;;;;;;4997699;28;20622;-76
2021/01/31 07:17:42;;;;;;;6.28;2.83;;;1.30;1.00;;;;;;4955833;29;20179;-76
2021/01/31 07:20:26;;;;;;;4.30;3.38;;;1.30;1.00;;;;;;4955795;29;20183;-75
2021/01/31 07:22:55;;;;;;;5.97;2.50;;;1.30;1.00;;;;;;4969838;28;20670;-76
2021/01/31 07:25:24;;;;;;;7.05;3.90;;;1.40;1.00;;;;;;5001568;28;20186;-76
2021/01/31 07:28:15;;;;;;;5.43;3.13;;;1.40;1.00;;;;;;4994632;28;20207;-76
2021/01/31 07:30:54;;;;;;;5.28;2.75;;;;;;;;;;4994665;28;20181;-75
2021/01/31 07:33:34;;;;;;;6.07;2.75;;;1.60;1.00;;;;;;5013198;28;20181;-76
2021/01/31 07:36:24;;;;;;;2.92;2.38;;;1.70;1.00;;;;;;5014055;28;20195;-74
2021/01/31 07:39:35;;;;;;;6.43;3.00;;;1.70;1.00;;;;;;4984879;28;20197;-74
2021/01/31 07:42:11;;;;;;;3.63;2.88;;;1.80;1.00;;;;;;4979957;28;20623;-75
2021/01/31 07:45:29;;;;;;;6.50;3.95;;;1.80;1.00;;;;;;4993960;28;20232;-74
2021/01/31 07:48:28;;;;;;;7.15;3.08;;;1.80;1.00;;;;;;4917486;29;20203;-75
2021/01/31 07:50:54;;;;;;;4.55;2.75;;;;;;;;;;4916861;29;20192;-74
2021/01/31 07:53:38;;;;;;;6.57;3.22;;;1.70;1.00;;;;;;4916995;29;20260;-75
2021/01/31 07:56:51;;;;;;;4.45;2.63;;;1.80;1.00;;;;;;4934798;29;20215;-75
2021/01/31 07:59:31;;;;;;;5.07;2.50;;;1.90;1.00;;;;;;4925037;29;20199;-76
2021/01/31 08:02:08;;;;;;;4.47;3.25;;;2.10;1.00;;;;;;4917441;29;20612;-75
2021/01/31 08:04:47;;;;;;;7.97;3.28;;;2.20;1.00;;;;;;4917521;29;20196;-75
2021/01/31 08:07:51;;;;;;;6.65;3.50;;;2.10;1.00;;;;;;4934999;29;20186;-75
2021/01/31 08:10:43;;;;;;;4.60;3.13;;;2.30;1.00;;;;;;4935813;29;20200;-75
2021/01/31 08:13:36;;;;;;;6.25;3.17;;;2.30;1.00;;;;;;4860727;29;20191;-76
2021/01/31 08:16:48;;;;;;;6.53;3.22;;;2.40;1.00;;;;;;4805763;29;20673;-75
2021/01/31 08:19:51;;;;;;;8.18;3.47;;;2.60;1.00;;;;;;4840669;29;20668;-75
2021/01/31 08:22:34;;;;;;;6.93;3.55;;;2.50;1.00;;;;;;4841964;29;20270;-74
2021/01/31 08:25:06;;;;;;;6.10;3.22;;;2.50;1.00;;;;;;4879107;29;20277;-74
2021/01/31 08:27:37;;;;;;;5.15;3.40;;;2.60;1.00;;;;;;4884764;29;20790;-75
2021/01/31 08:30:29;;;;;;;6.05;3.28;;;2.50;1.00;;;;;;4916206;29;20228;-74
2021/01/31 08:32:58;;;;;;;7.90;3.28;;;2.60;1.00;;;;;;4904497;29;20193;-75
2021/01/31 08:36:03;;;;;;;4.72;3.03;;;2.60;1.00;;;;;;4894832;29;20206;-75
2021/01/31 08:39:23;;;;;;;8.13;3.45;;;2.50;1.00;;;;;;4909357;29;20176;-75
2021/01/31 08:42:18;;;;;;;8.50;2.90;;;2.50;1.00;;;;;;4890990;29;20186;-76
2021/01/31 08:44:55;;;;;;;4.82;3.20;;;2.60;1.00;;;;;;4877506;29;20205;-75
2021/01/31 08:47:22;;;;;;;4.45;3.22;;;2.70;1.00;;;;;;4863215;29;20224;-76
2021/01/31 08:49:59;;;;;;;5.47;2.80;;;2.60;1.00;;;;;;4892164;29;20223;-76
2021/01/31 08:52:45;;;;;;;5.78;3.75;;;2.50;1.00;;;;;;4935209;28;20193;-74
2021/01/31 08:55:33;;;;;;;13.73;3.15;;;2.50;1.00;;;;;;4973707;28;20194;-74
2021/01/31 08:58:10;;;;;;;6.75;3.03;;;2.60;1.00;;;;;;4973205;28;20202;-74
2021/01/31 09:00:39;;;;;;;8.73;4.45;;;2.80;1.00;;;;;;4973175;28;20174;-75
2021/01/31 09:03:21;;;;;;;4.85;3.13;;;2.90;1.00;;;;;;4973483;28;20210;-75
2021/01/31 09:05:52;;;;;;;7.95;3.40;;;3.00;1.00;;;;;;4964528;28;20217;-74
2021/01/31 09:08:21;;;;;;;7.95;3.38;;;3.00;1.00;;;;;;4973452;28;20204;-75
2021/01/31 09:11:09;;;;;;;5.60;3.92;;;2.90;1.00;;;;;;4973174;28;20205;-75
2021/01/31 09:14:15;;;;;;;7.05;3.25;;;3.00;1.00;;;;;;4973348;28;20220;-74
2021/01/31 09:16:41;;;;;;;4.60;2.65;;;3.00;1.00;;;;;;5069925;28;20211;-74
2021/01/31 09:19:33;;;;;;;7.80;3.97;;;3.10;1.00;;;;;;5053931;28;20167;-74
2021/01/31 09:22:20;;;;;;;6.80;3.15;;;3.20;1.00;;;;;;5053550;28;20244;-74
2021/01/31 09:24:59;;;;;;;9.27;4.43;;;3.20;1.00;;;;;;5054117;28;20170;-76
2021/01/31 09:27:29;;;;;;;8.70;4.22;;;3.30;1.00;;;;;;5060784;28;20514;-75
2021/01/31 09:30:04;;;;;;;10.95;4.38;;;3.40;1.00;;;;;;5073850;28;20289;-75
2021/01/31 09:32:46;;;;;;;5.28;3.30;;;3.50;1.00;;;;;;5062623;28;20186;-76
2021/01/31 09:35:22;;;;;;;8.05;4.38;;;3.60;1.00;;;;;;5053151;28;20187;-75
2021/01/31 09:37:55;;;;;;;13.48;4.15;;;3.50;1.00;;;;;;5052003;28;20543;-75
2021/01/31 09:40:53;;;;;;;7.68;3.95;;;3.50;1.00;;;;;;5053592;28;20233;-74
2021/01/31 09:43:30;;;;;;;8.00;3.72;;;3.60;1.00;;;;;;5053788;28;20160;-74
2021/01/31 09:46:09;;;;;;;8.35;3.58;;;3.60;1.00;;;;;;5053584;28;20179;-74
2021/01/31 09:49:19;;;;;;;9.15;4.40;;;3.40;1.00;;;;;;5053128;28;20182;-74
2021/01/31 09:52:08;;;;;;;6.35;3.55;;;3.50;1.00;;;;;;5040785;28;20171;-74
2021/01/31 09:54:35;;;;;;;12.77;4.68;;;3.60;1.00;;;;;;5055628;28;20290;-74
2021/01/31 09:57:06;;;;;;;6.60;3.65;;;3.70;1.00;;;;;;5055126;28;20207;-74
2021/01/31 09:59:36;;;;;;;8.13;3.95;;;3.80;1.00;;;;;;5055633;28;20262;-75
2021/01/31 10:02:21;;;;;;;7.55;3.90;;;3.90;1.00;;;;;;5055281;28;20193;-75
2021/01/31 10:05:01;;;;;;;8.68;3.83;;;;;;;;;;5050975;28;20194;-74
2021/01/31 10:07:42;;;;;;;6.07;3.95;;;4.00;1.00;;;;;;5048986;28;20580;-75
2021/01/31 10:10:42;;;;;;;8.20;3.95;;;3.90;1.00;;;;;;5053950;28;20267;-75
2021/01/31 10:13:42;;;;;;;5.97;3.42;;;4.00;1.00;;;;;;5028820;28;20184;-76
2021/01/31 10:16:22;;;;;;;10.73;4.88;;;4.20;1.00;;;;;;4968739;28;20187;-76
2021/01/31 10:18:49;;;;;;;9.95;5.22;;;4.40;1.00;;;;;;4955582;28;20287;-77
2021/01/31 10:21:25;;;;;;;8.93;4.97;;;4.50;1.00;;;;;;4972521;28;20175;-76
2021/01/31 10:24:04;;;;;;;6.32;4.13;;;4.60;1.00;;;;;;4957050;28;20186;-76
2021/01/31 10:27:11;;;;;;;8.27;4.15;;;4.80;1.00;;;;;;4981277;28;20567;-76
2021/01/31 10:29:46;;;;;;;10.60;4.63;;;;;;;;;;4947278;29;20183;-75
2021/01/31 10:32:51;;;;;;;10.02;4.63;;;4.60;1.00;;;;;;4937561;29;20183;-75
2021/01/31 10:35:30;;;;;;;6.00;3.87;;;4.60;1.00;;;;;;4937409;29;20594;-76
2021/01/31 10:38:32;;;;;;;7.55;4.05;;;4.90;1.00;;;;;;4947409;29;20414;-78
2021/01/31 10:41:00;;;;;;;8.80;4.80;;;5.00;1.00;;;;;;4918427;29;20283;-82
2021/01/31 10:43:27;;;;;;;12.00;4.85;;;4.90;1.00;;;;;;4917925;29;20637;-80
2021/01/31 10:46:04;;;;;;;10.85;4.53;;;5.00;1.00;;;;;;4910506;29;20219;-80
2021/01/31 10:48:51;;;;;;;9.77;5.10;;;5.00;1.00;;;;;;4899151;29;20188;-79
2021/01/31 10:51:23;;;;;;;7.57;4.07;;;5.10;1.00;;;;;;4917599;29;20187;-80
2021/01/31 10:53:52;;;;;;;12.60;4.30;;;5.20;1.00;;;;;;4940356;29;20183;-81
2021/01/31 10:56:22;;;;;;;10.55;4.50;;;5.20;1.00;;;;;;4956250;29;20518;-81
2021/01/31 11:05:30;;;;;;;8.23;4.03;;;5.00;1.00;;;;;;4957611;28;20390;-81
2021/01/31 11:08:51;;;;;;;10.07;4.50;;;5.10;1.00;;;;;;5014521;28;20161;-81
2021/01/31 11:11:51;;;;;;;10.02;4.40;;;5.00;1.00;;;;;;5014284;28;20702;-80
2021/01/31 11:14:51;;;;;;;7.47;4.47;;;5.00;1.00;;;;;;5014155;28;20216;-79
2021/01/31 11:17:40;;;;;;;9.27;4.35;;;5.10;1.00;;;;;;5047757;28;20190;-80
2021/01/31 11:20:51;;;;;;;9.15;4.80;;;5.20;1.00;;;;;;5056306;28;20205;-75
2021/01/31 11:23:17;;;;;;;7.65;4.55;;;5.20;1.00;;;;;;5055889;28;20148;-76
2021/01/31 11:25:44;;;;;;;10.70;5.00;;;5.20;1.00;;;;;;5056060;28;20172;-76
2021/01/31 11:28:10;;;;;;;7.97;4.15;;;;;;;;;;5055728;28;20426;-75
2021/01/31 11:30:37;;;;;;;6.85;4.45;;;5.40;1.00;;;;;;5055972;28;20214;-75
2021/01/31 11:33:03;;;;;;;13.25;5.40;;;;;;;;;;5055686;28;20246;-74
2021/01/31 11:35:31;;;;;;;5.07;3.63;;;5.30;1.00;;;;;;5054894;28;20214;-74
2021/01/31 11:37:57;;;;;;;9.35;4.50;;;5.20;1.00;;;;;;5054811;28;20163;-74
2021/01/31 11:40:24;;;;;;;7.15;4.13;;;5.20;1.00;;;;;;5054946;28;20176;-76
2021/01/31 11:42:50;;;;;;;9.63;4.88;;;;;;;;;;5054975;28;20509;-77
2021/01/31 11:45:17;;;;;;;9.33;4.70;;;5.00;1.00;;;;;;5054456;28;20180;-76
2021/01/31 11:47:43;;;;;;;9.90;5.25;;;5.00;1.00;;;;;;5054499;28;20941;-76
2021/01/31 11:50:11;;;;;;;7.00;4.40;;;5.00;1.00;;;;;;5054678;28;20267;-77
2021/01/31 11:52:37;;;;;;;7.50;4.53;;;4.90;1.00;;;;;;5056916;28;20160;-75
2021/01/31 11:55:04;;;;;;;8.07;4.47;;;4.90;1.00;;;;;;5074829;28;20191;-75
2021/01/31 11:57:30;;;;;;;6.57;4.60;;;;;;;;;;5074313;28;20181;-79
2021/01/31 11:59:56;;;;;;;8.27;4.23;;;;;;;;;;5074487;28;20155;-75
2021/01/31 12:02:23;;;;;;;9.07;4.70;;;;;;;;;;5074364;28;20427;-76
2021/01/31 12:04:49;;;;;;;10.23;4.40;;;;;;;;;;5074433;28;20485;-76
2021/01/31 12:07:15;;;;;;;6.13;3.87;;;;;;;;;;5074170;28;20591;-75
2021/01/31 12:09:45;;;;;;;8.83;4.83;;;5.50;1.00;;;;;;5074792;28;20480;-75
2021/01/31 12:12:11;;;;;;;7.78;4.35;;;;;;;;;;5074315;28;20429;-76
2021/01/31 12:14:40;;;;;;;5.90;3.90;;;;;;;;;;5073291;28;20248;-76
2021/01/31 12:17:05;;;;;;;8.70;4.75;;;5.60;1.00;;;;;;5074042;28;20466;-75
2021/01/31 12:19:31;;;;;;;8.80;4.77;;;;;;;;;;5074143;28;20202;-76
2021/01/31 12:21:57;;;;;;;8.73;4.68;;;;;;;;;;5074067;28;20166;-76
2021/01/31 12:24:23;;;;;;;7.20;4.33;;;;;;;;;;5074025;28;20160;-76
2021/01/31 12:26:51;;;;;;;13.00;4.97;;;5.50;1.00;;;;;;5074342;28;20922;-75
2021/01/31 12:29:17;;;;;;;10.07;4.55;;;;;;;;;;5073939;28;20476;-76
2021/01/31 12:31:43;;;;;;;11.02;4.90;;;;;;;;;;5073979;28;20229;-76
2021/01/31 12:34:09;;;;;;;9.23;5.03;;;;;;;;;;5072372;28;20685;-76
2021/01/31 12:36:36;;;;;;;7.70;3.90;;;;;;;;;;5073923;28;20382;-76
2021/01/31 12:39:03;;;;;;;10.88;4.30;;;5.10;1.00;;;;;;5073636;28;20409;-76
2021/01/31 12:41:29;;;;;;;8.70;4.15;;;;;;;;;;5074065;28;20179;-75
2021/01/31 12:43:55;;;;;;;9.07;4.27;;;5.10;1.00;;;;;;5073344;28;20194;-75
2021/01/31 12:46:21;;;;;;;11.77;4.97;;;;;;;;;;5073332;28;20402;-75
2021/01/31 12:48:47;;;;;;;9.43;4.37;;;;;;;;;;5073844;28;20546;-75
2021/01/31 12:51:13;;;;;;;9.37;4.00;;;;;;;;;;5073632;28;20394;-75
2021/01/31 12:53:39;;;;;;;7.50;4.57;;;;;;;;;;5062269;28;20433;-74
2021/01/31 12:56:05;;;;;;;9.63;4.73;;;;;;;;;;5053729;28;20449;-74
2021/01/31 12:58:30;;;;;;;8.02;4.10;;;5.10;1.00;;;;;;5053382;28;20405;-73
2021/01/31 13:00:57;;;;;;;10.67;5.37;;;;;;;;;;5053288;28;20160;-74
2021/01/31 13:03:23;;;;;;;10.32;4.57;;;5.10;1.00;;;;;;5053393;28;20152;-74
2021/01/31 13:05:49;;;;;;;8.30;4.50;;;;;;;;;;5053351;28;20168;-74
2021/01/31 13:08:15;;;;;;;6.80;4.20;;;;;;;;;;5053105;28;20486;-74
2021/01/31 13:10:42;;;;;;;9.20;4.33;;;;;;;;;;5053554;28;20390;-74
2021/01/31 13:13:08;;;;;;;11.13;4.32;;;;;;;;;;5053144;28;20398;-74
2021/01/31 13:15:34;;;;;;;8.30;4.65;;;;;;;;;;5052876;28;20199;-74
2021/01/31 13:18:00;;;;;;;8.93;4.77;;;;;;;;;;5053007;28;20156;-73
2021/01/31 13:20:27;;;;;;;9.65;4.60;;;4.80;1.00;;;;;;5052974;28;20458;-73
2021/01/31 13:22:54;;;;;;;7.05;3.72;;;4.90;1.00;;;;;;5053014;28;20168;-74
2021/01/31 13:25:20;;;;;;;7.80;4.57;;;;;;;;;;5053124;28;20167;-75
2021/01/31 13:27:46;;;;;;;6.90;4.22;;;;;;;;;;5052910;28;20699;-76
2021/01/31 13:30:17;;;;;;;11.07;4.53;;;4.90;1.00;;;;;;5053002;28;20199;-76
2021/01/31 13:32:44;;;;;;;8.77;4.53;;;4.80;1.00;;;;;;5052811;28;20515;-75
2021/01/31 13:35:10;;;;;;;9.05;4.80;;;;;;;;;;5052799;28;20180;-75
2021/01/31 13:37:36;;;;;;;10.68;4.78;;;5.10;1.00;;;;;;5059449;28;20249;-75
2021/01/31 13:40:02;;;;;;;9.87;4.43;;;;;;;;;;5072940;28;20217;-75
2021/01/31 13:42:28;;;;;;;9.65;4.07;;;5.00;1.00;;;;;;5073137;28;20932;-75
2021/01/31 13:44:54;;;;;;;10.53;4.93;;;5.10;1.00;;;;;;5072506;28;20266;-75
2021/01/31 13:47:20;;;;;;;11.90;5.10;;;;;;;;;;5073039;28;20163;-74
2021/01/31 13:49:45;;;;;;;7.47;4.30;;;4.90;1.00;;;;;;5072810;28;20163;-74
2021/01/31 13:52:11;;;;;;;7.13;4.70;;;;;;;;;;5072732;28;20455;-74
2021/01/31 13:54:37;;;;;;;8.70;4.40;;;;;;;;;;5053326;28;20198;-74
2021/01/31 13:57:03;;;;;;;9.43;4.73;;;4.60;1.00;;;;;;5051704;28;20700;-74
2021/01/31 13:59:29;;;;;;;7.00;4.30;;;;;;;;;;5052225;28;20418;-74
2021/01/31 14:01:55;;;;;;;8.30;4.75;;;;;;;;;;5052592;28;20825;-74
2021/01/31 14:04:22;;;;;;;5.87;3.70;;;;;;;;;;5052640;28;20247;-74
2021/01/31 14:06:48;;;;;;;8.80;4.75;;;;;;;;;;5052479;28;20418;-75
2021/01/31 14:09:14;;;;;;;8.65;4.40;;;;;;;;;;5052550;28;20156;-75
2021/01/31 14:11:40;;;;;;;7.40;4.05;;;4.20;1.00;;;;;;5052855;28;20255;-76
2021/01/31 14:14:06;;;;;;;8.33;4.60;;;;;;;;;;5052416;28;20243;-77
2021/01/31 14:16:32;;;;;;;14.02;4.65;;;;;;;;;;5052470;28;20170;-77
2021/01/31 14:18:58;;;;;;;9.18;4.60;;;;;;;;;;5052506;28;20160;-77
2021/01/31 14:21:29;;;;;;;10.10;4.57;;;4.10;1.00;;;;;;5052523;28;20178;-77
2021/01/31 14:23:55;;;;;;;8.18;4.25;;;;;;;;;;5052550;28;20447;-77
2021/01/31 14:26:21;;;;;;;9.90;4.80;;;;;;;;;;5051449;28;20180;-76
2021/01/31 14:28:47;;;;;;;13.43;4.60;;;;;;;;;;5052428;28;20515;-77
2021/01/31 14:31:13;;;;;;;10.00;5.13;;;;;;;;;;5052250;28;20394;-77
2021/01/31 14:33:39;;;;;;;9.73;4.57;;;;;;;;;;5052352;28;20386;-76
2021/01/31 14:36:05;;;;;;;11.73;4.50;;;;;;;;;;5052278;28;20207;-75
2021/01/31 14:38:31;;;;;;;9.18;4.20;;;4.00;1.00;;;;;;5069791;28;20463;-75
2021/01/31 14:40:57;;;;;;;9.60;4.30;;;;;;;;;;5075893;28;20163;-74
2021/01/31 14:43:23;;;;;;;7.83;4.70;;;;;;;;;;5076143;28;20386;-75
2021/01/31 14:45:49;;;;;;;10.93;5.07;;;;;;;;;;5075582;28;20417;-75
2021/01/31 14:48:15;;;;;;;6.73;4.20;;;;;;;;;;5075863;28;20618;-74
2021/01/31 14:51:04;;;;;;;12.80;4.90;;;3.80;1.00;;;;;;5073821;28;20501;-75
2021/01/31 14:53:29;;;;;;;7.68;4.25;;;4.00;1.00;;;;;;5066222;28;20967;-75
2021/01/31 14:55:55;;;;;;;9.80;5.33;;;;;;;;;;5096682;28;20268;-75
2021/01/31 14:58:22;;;;;;;8.32;4.25;;;4.00;1.00;;;;;;5086508;28;20174;-72
2021/01/31 15:01:04;;;;;;;10.23;4.70;;;4.00;1.00;;;;;;5075656;28;20578;-77
2021/01/31 15:03:30;;;;;;;10.52;4.93;;;4.00;1.00;;;;;;5071881;28;20675;-76
2021/01/31 15:06:04;;;;;;;10.83;4.63;;;4.00;1.00;;;;;;5056171;28;20175;-75
2021/01/31 15:08:46;;;;;;;11.32;4.93;;;4.00;1.00;;;;;;5056398;28;20682;-75
2021/01/31 15:11:22;;;;;;;10.85;4.72;;;4.00;1.00;;;;;;5056492;28;20168;-75
2021/01/31 15:17:09;;;;;;;8.60;4.43;;;4.10;1.00;;;;;;5056291;28;20641;-77
2021/01/31 15:23:15;;;;;;;7.20;3.90;;;4.00;1.00;;;;;;5055789;28;20187;-77
2021/01/31 15:25:52;;;;;;;8.60;4.95;;;4.10;1.00;;;;;;5055631;28;20202;-76
2021/01/31 15:28:46;;;;;;;12.10;4.88;;;4.00;1.00;;;;;;5056511;28;20634;-76
2021/01/31 15:34:34;;;;;;;10.32;4.95;;;3.90;1.00;;;;;;5055945;28;20210;-74
2021/01/31 15:37:22;;;;;;;11.43;5.53;;;3.80;1.00;;;;;;5062704;28;20511;-74